createdAt,value
2018-11-20T00:05:28.375Z,23.20
2018-11-20T00:16:10.136Z,23.20
2018-11-20T00:26:32.351Z,23.20
2018-11-20T00:36:45.948Z,23.20
2018-11-20T00:47:18.536Z,23.20
2018-11-20T00:57:40.867Z,23.10
2018-11-20T01:08:03.179Z,23.10
2018-11-20T01:18:42.037Z,23.10
2018-11-20T01:29:05.683Z,23.00
2018-11-20T01:39:26.601Z,22.90
2018-11-20T01:49:52.895Z,22.90
2018-11-20T02:00:22.141Z,22.90
2018-11-20T02:10:44.738Z,22.80
2018-11-20T02:21:08.533Z,22.80
2018-11-20T02:31:50.185Z,22.70
2018-11-20T02:42:14.853Z,22.70
2018-11-20T02:52:38.429Z,22.60
2018-11-20T03:03:17.060Z,22.60
2018-11-20T03:13:45.468Z,22.60
2018-11-20T03:24:02.022Z,22.60
2018-11-20T03:34:40.888Z,22.50
2018-11-20T03:45:04.602Z,22.50
2018-11-20T03:55:43.302Z,22.50
2018-11-20T04:06:06.884Z,22.50
2018-11-20T04:16:29.398Z,22.50
2018-11-20T04:26:58.601Z,22.40
2018-11-20T04:37:29.921Z,22.40
2018-11-20T04:47:52.399Z,22.40
2018-11-20T04:58:18.910Z,22.40
2018-11-20T05:08:41.437Z,22.40
2018-11-20T05:19:09.376Z,22.40
2018-11-20T05:29:32.904Z,22.40
2018-11-20T05:39:56.685Z,22.40
2018-11-20T05:50:18.967Z,22.30
2018-11-20T06:01:00.640Z,22.30
2018-11-20T06:11:24.232Z,22.40
2018-11-20T06:21:47.948Z,22.40
2018-11-20T06:32:29.610Z,22.40
2018-11-20T06:42:53.242Z,22.40
2018-11-20T06:53:16.124Z,22.30
2018-11-20T07:03:38.087Z,22.30
2018-11-20T07:14:34.506Z,22.30
2018-11-20T07:24:55.603Z,22.40
2018-11-20T07:35:17.833Z,22.40
2018-11-20T07:45:37.267Z,22.50
2018-11-20T07:56:01.074Z,22.50
2018-11-20T08:06:29.583Z,22.40
2018-11-20T08:16:59.968Z,22.40
2018-11-20T08:27:22.102Z,22.40
2018-11-20T08:37:48.740Z,22.40
2018-11-20T08:48:12.447Z,22.40
2018-11-20T08:58:41.752Z,22.40
2018-11-20T09:09:17.245Z,22.40
2018-11-20T09:19:43.507Z,22.40
2018-11-20T09:30:10.617Z,22.40
2018-11-20T09:41:02.284Z,22.40
2018-11-20T09:51:31.918Z,22.40
2018-11-20T10:02:05.301Z,22.40
2018-11-20T10:12:31.486Z,22.40
2018-11-20T10:23:00.849Z,22.40
2018-11-20T10:33:42.975Z,22.40
2018-11-20T10:44:05.877Z,22.10
2018-11-20T10:54:35.649Z,22.20
2018-11-20T11:04:58.140Z,22.40
2018-11-20T11:15:21.731Z,22.40
2018-11-20T11:25:44.145Z,22.40
2018-11-20T11:36:06.588Z,22.40
2018-11-20T11:46:45.302Z,22.40
2018-11-20T11:57:07.934Z,22.40
2018-11-20T12:07:29.444Z,22.40
2018-11-20T12:17:59.066Z,22.40
2018-11-20T12:28:34.489Z,22.50
2018-11-20T12:38:55.255Z,22.50
2018-11-20T12:49:19.059Z,22.50
2018-11-20T12:59:59.450Z,22.50
2018-11-20T13:10:22.785Z,22.40
2018-11-20T13:20:50.603Z,22.50
2018-11-20T13:31:28.146Z,22.50
2018-11-20T13:42:11.829Z,22.50
2018-11-20T13:52:35.317Z,22.40
2018-11-20T14:03:01.896Z,22.40
2018-11-20T14:13:30.548Z,22.40
2018-11-20T14:24:02.953Z,22.40
2018-11-20T14:34:38.593Z,22.40
2018-11-20T14:45:00.202Z,22.40
2018-11-20T14:55:22.785Z,22.40
2018-11-20T15:05:45.345Z,22.40
2018-11-20T15:16:09.940Z,22.40
2018-11-20T15:26:29.360Z,22.40
2018-11-20T15:36:51.555Z,22.30
2018-11-20T15:47:13.676Z,22.40
2018-11-20T15:57:34.284Z,22.40
2018-11-20T16:07:57.874Z,22.40
2018-11-20T16:18:20.231Z,22.40
2018-11-20T16:28:41.158Z,22.40
2018-11-20T16:39:10.835Z,22.40
2018-11-20T16:49:49.639Z,22.40
2018-11-20T17:00:25.572Z,22.40
2018-11-20T17:10:49.273Z,22.40
2018-11-20T17:21:14.402Z,22.30
2018-11-20T17:31:44.159Z,22.30
2018-11-20T17:42:10.601Z,22.30
2018-11-20T17:52:33.776Z,22.30
2018-11-20T18:02:55.839Z,22.30
2018-11-20T18:13:17.249Z,22.30
2018-11-20T18:23:39.644Z,22.30
2018-11-20T18:34:02.187Z,22.30
2018-11-20T18:44:25.828Z,22.30
2018-11-20T18:54:55.170Z,22.30
2018-11-20T19:05:13.673Z,22.30
2018-11-20T19:15:36.198Z,22.30
2018-11-20T19:26:05.774Z,22.30
2018-11-20T19:36:27.837Z,22.30
2018-11-20T19:47:06.461Z,22.20
2018-11-20T19:57:33.485Z,22.30
2018-11-20T20:08:06.298Z,22.30
2018-11-20T20:18:48.296Z,22.20
2018-11-20T20:29:10.562Z,22.20
2018-11-20T20:39:32.545Z,22.30
2018-11-20T20:49:59.326Z,22.30
2018-11-20T21:00:22.518Z,22.20
2018-11-20T21:10:55.064Z,22.20
2018-11-20T21:21:17.358Z,22.20
2018-11-20T21:31:56.575Z,21.90
2018-11-20T21:42:08.013Z,22.10
2018-11-20T21:52:34.893Z,22.20
2018-11-20T22:02:57.045Z,22.20
2018-11-20T22:13:20.927Z,22.30
2018-11-20T22:23:44.579Z,22.40
2018-11-20T22:34:08.194Z,22.40
2018-11-20T22:44:43.829Z,22.40
2018-11-20T22:55:06.460Z,22.40
2018-11-20T23:05:27.046Z,22.40
2018-11-20T23:15:31.983Z,22.40
2018-11-20T23:25:37.565Z,22.40
2018-11-20T23:35:43.078Z,22.40
2018-11-20T23:45:47.863Z,22.40
2018-11-20T23:55:52.660Z,22.40
